createdAt,value
2017-06-01T00:01:06.399Z,946.0
2017-06-01T00:02:14.488Z,946.0
2017-06-01T00:03:22.570Z,946.0
2017-06-01T00:04:30.655Z,946.0
2017-06-01T00:05:38.864Z,946.0
2017-06-01T00:06:46.829Z,946.0
2017-06-01T00:07:55.036Z,946.0
2017-06-01T00:09:03.001Z,946.0
2017-06-01T00:10:11.091Z,946.0
2017-06-01T00:11:19.234Z,946.0
2017-06-01T00:12:27.265Z,946.0
2017-06-01T00:13:35.508Z,946.0
2017-06-01T00:14:43.441Z,946.0
2017-06-01T00:15:51.532Z,946.0
2017-06-01T00:16:59.735Z,946.0
2017-06-01T00:18:07.704Z,946.0
2017-06-01T00:19:15.817Z,946.0
2017-06-01T00:20:23.881Z,945.9
2017-06-01T00:21:31.966Z,946.0
2017-06-01T00:22:40.175Z,946.0
2017-06-01T00:23:48.198Z,946.0
2017-06-01T00:24:56.232Z,946.0
2017-06-01T00:26:04.317Z,946.0
2017-06-01T00:27:12.404Z,946.0
2017-06-01T00:28:20.611Z,946.0
2017-06-01T00:29:28.580Z,946.0
2017-06-01T00:30:36.672Z,946.0
2017-06-01T00:31:44.756Z,946.0
2017-06-01T00:32:52.845Z,946.0
2017-06-01T00:34:01.052Z,946.0
2017-06-01T00:35:09.034Z,946.0
2017-06-01T00:36:17.111Z,946.0
2017-06-01T00:37:25.199Z,946.0
2017-06-01T00:38:33.287Z,946.0
2017-06-01T00:39:41.495Z,946.1
2017-06-01T00:40:49.636Z,946.0
2017-06-01T00:41:57.551Z,946.1
2017-06-01T00:43:05.641Z,946.1
2017-06-01T00:44:13.727Z,946.1
2017-06-01T00:45:21.933Z,946.1
2017-06-01T00:46:29.901Z,946.1
2017-06-01T00:47:38.062Z,946.1
2017-06-01T00:48:46.076Z,946.2
2017-06-01T00:49:54.164Z,946.1
2017-06-01T00:51:02.308Z,946.1
2017-06-01T00:52:10.341Z,946.1
2017-06-01T00:53:18.453Z,946.1
2017-06-01T00:54:26.514Z,946.1
2017-06-01T00:55:34.720Z,946.1
2017-06-01T00:56:42.809Z,946.1
2017-06-01T00:57:50.772Z,946.1
2017-06-01T00:58:58.863Z,946.1
2017-06-01T01:00:06.950Z,946.1
2017-06-01T01:01:15.037Z,946.1
2017-06-01T01:02:23.183Z,946.1
2017-06-01T01:03:31.211Z,946.1
2017-06-01T01:04:39.474Z,946.1
2017-06-01T01:05:47.382Z,946.1
2017-06-01T01:06:55.472Z,946.1
2017-06-01T01:08:03.616Z,946.1
2017-06-01T01:09:11.645Z,946.1
2017-06-01T01:10:19.800Z,946.1
2017-06-01T01:11:27.945Z,946.1
2017-06-01T01:12:35.912Z,946.1
2017-06-01T01:13:44.117Z,946.1
2017-06-01T01:14:52.088Z,946.1
2017-06-01T01:16:00.171Z,946.1
2017-06-01T01:17:08.260Z,946.1
2017-06-01T01:18:16.346Z,946.1
2017-06-01T01:19:24.496Z,946.1
2017-06-01T01:20:32.521Z,946.1
2017-06-01T01:21:40.611Z,946.1
2017-06-01T01:22:48.700Z,946.1
2017-06-01T01:23:56.785Z,946.1
2017-06-01T01:25:04.990Z,946.0
2017-06-01T01:26:12.961Z,946.0
2017-06-01T01:27:21.168Z,946.1
2017-06-01T01:28:29.133Z,946.1
2017-06-01T01:29:37.223Z,946.1
2017-06-01T01:30:45.368Z,946.1
2017-06-01T01:31:53.562Z,946.1
2017-06-01T01:33:01.486Z,946.0
2017-06-01T01:34:09.582Z,946.0
2017-06-01T01:35:17.666Z,946.0
2017-06-01T01:36:25.811Z,946.0
2017-06-01T01:37:33.842Z,946.0
2017-06-01T01:38:41.961Z,946.0
2017-06-01T01:39:50.016Z,946.0
2017-06-01T01:40:58.110Z,946.0
2017-06-01T01:42:06.316Z,946.0
2017-06-01T01:43:14.404Z,946.0
2017-06-01T01:44:22.370Z,946.1
2017-06-01T01:45:30.460Z,946.0
2017-06-01T01:46:38.547Z,946.0
2017-06-01T01:47:46.754Z,946.0
2017-06-01T01:48:54.811Z,946.0
2017-06-01T01:50:02.805Z,946.0
2017-06-01T01:51:10.895Z,946.0
2017-06-01T01:52:18.980Z,946.0
2017-06-01T01:53:27.126Z,946.0
2017-06-01T01:54:35.154Z,946.0
2017-06-01T01:55:43.245Z,946.0
2017-06-01T01:56:51.332Z,946.1
2017-06-01T01:57:59.419Z,946.1
2017-06-01T01:59:07.625Z,946.1
2017-06-01T02:00:15.592Z,946.1
2017-06-01T02:01:23.682Z,946.1
2017-06-01T02:02:31.766Z,946.1
2017-06-01T02:03:39.853Z,946.1
2017-06-01T02:04:48.061Z,946.1
2017-06-01T02:05:56.175Z,946.2
2017-06-01T02:07:04.115Z,946.3
2017-06-01T02:08:12.201Z,946.4
2017-06-01T02:09:20.289Z,946.4
2017-06-01T02:10:28.432Z,946.4
2017-06-01T02:11:36.462Z,946.4
2017-06-01T02:12:44.549Z,946.4
2017-06-01T02:13:52.637Z,946.4
2017-06-01T02:15:02.121Z,946.4
2017-06-01T02:16:08.933Z,946.5
2017-06-01T02:17:16.898Z,946.5
2017-06-01T02:18:24.985Z,946.5
2017-06-01T02:19:33.076Z,946.5
2017-06-01T02:20:41.161Z,946.6
2017-06-01T02:21:49.300Z,946.6
2017-06-01T02:22:57.486Z,946.6
2017-06-01T02:24:05.426Z,946.6
2017-06-01T02:25:13.516Z,946.6
2017-06-01T02:26:21.603Z,946.7
2017-06-01T02:27:29.811Z,946.7
2017-06-01T02:28:37.778Z,946.7
2017-06-01T02:29:45.896Z,946.7
2017-06-01T02:30:54.074Z,946.7
2017-06-01T02:32:02.039Z,946.7
2017-06-01T02:33:10.182Z,946.8
2017-06-01T02:34:18.218Z,946.8
2017-06-01T02:35:26.299Z,946.7
2017-06-01T02:36:34.388Z,946.7
2017-06-01T02:37:42.476Z,946.7
2017-06-01T02:38:50.619Z,946.7
2017-06-01T02:39:58.669Z,946.7
2017-06-01T02:41:06.737Z,946.6
2017-06-01T02:42:14.832Z,946.6
2017-06-01T02:43:22.920Z,946.6
2017-06-01T02:44:31.129Z,946.6
2017-06-01T02:45:39.097Z,946.6
2017-06-01T02:46:47.402Z,946.6
2017-06-01T02:47:55.268Z,946.6
2017-06-01T02:49:03.353Z,946.6
2017-06-01T02:50:11.498Z,946.6
2017-06-01T02:51:19.532Z,946.6
2017-06-01T02:52:27.618Z,946.6
2017-06-01T02:53:35.705Z,946.5
2017-06-01T02:54:43.792Z,946.5
2017-06-01T02:55:52.002Z,946.6
2017-06-01T02:57:00.145Z,946.5
2017-06-01T02:58:08.051Z,946.5
2017-06-01T02:59:16.143Z,946.5
2017-06-01T03:00:24.228Z,946.5
2017-06-01T03:01:32.439Z,946.5
2017-06-01T03:02:40.457Z,946.5
2017-06-01T03:03:48.577Z,946.5
2017-06-01T03:04:56.579Z,946.5
2017-06-01T03:06:04.667Z,946.5
2017-06-01T03:07:12.875Z,946.5
2017-06-01T03:08:20.842Z,946.4
2017-06-01T03:09:28.934Z,946.5
2017-06-01T03:10:37.015Z,946.5
2017-06-01T03:11:45.101Z,946.4
2017-06-01T03:12:53.245Z,946.4
2017-06-01T03:14:01.475Z,946.4
2017-06-01T03:15:09.364Z,946.4
2017-06-01T03:16:17.451Z,946.4
2017-06-01T03:17:25.537Z,946.4
2017-06-01T03:18:33.744Z,946.4
2017-06-01T03:19:41.713Z,946.4
2017-06-01T03:20:49.907Z,946.4
2017-06-01T03:21:57.888Z,946.4
2017-06-01T03:23:05.978Z,946.5
2017-06-01T03:24:14.183Z,946.5
2017-06-01T03:25:22.162Z,946.5
2017-06-01T03:26:30.236Z,946.5
2017-06-01T03:27:38.325Z,946.5
2017-06-01T03:28:46.521Z,946.5
2017-06-01T03:29:54.556Z,946.5
2017-06-01T03:31:02.661Z,946.5
2017-06-01T03:32:10.672Z,946.5
2017-06-01T03:33:18.762Z,946.5
2017-06-01T03:34:26.969Z,946.5
2017-06-01T03:35:35.054Z,946.5
2017-06-01T03:36:43.021Z,946.5
2017-06-01T03:37:51.205Z,946.5
2017-06-01T03:38:59.194Z,946.5
2017-06-01T03:40:07.281Z,946.5
2017-06-01T03:41:15.424Z,946.5
2017-06-01T03:42:23.456Z,946.5
2017-06-01T03:43:31.542Z,946.5
2017-06-01T03:44:39.630Z,946.5
2017-06-01T03:45:48.331Z,946.5
2017-06-01T03:46:55.924Z,946.5
2017-06-01T03:48:03.940Z,946.4
2017-06-01T03:49:11.978Z,946.5
2017-06-01T03:50:20.187Z,946.5
2017-06-01T03:51:28.152Z,946.4
2017-06-01T03:52:36.307Z,946.5
2017-06-01T03:53:44.343Z,946.5
2017-06-01T03:54:52.415Z,946.5
2017-06-01T03:56:00.499Z,946.5
2017-06-01T03:57:08.589Z,946.6
2017-06-01T03:58:16.795Z,946.6
2017-06-01T03:59:24.762Z,946.6
2017-06-01T04:00:32.966Z,946.6
2017-06-01T04:01:40.938Z,946.6
2017-06-01T04:02:49.025Z,946.6
2017-06-01T04:03:57.232Z,946.7
2017-06-01T04:05:05.403Z,946.7
2017-06-01T04:06:13.427Z,946.7
2017-06-01T04:07:21.370Z,946.7
2017-06-01T04:08:29.492Z,946.8
2017-06-01T04:09:37.604Z,946.8
2017-06-01T04:10:45.637Z,946.8
2017-06-01T04:11:53.726Z,946.8
2017-06-01T04:13:01.811Z,946.8
2017-06-01T04:14:09.899Z,946.8
2017-06-01T04:15:18.110Z,946.7
2017-06-01T04:16:26.661Z,946.7
2017-06-01T04:17:34.164Z,946.7
2017-06-01T04:18:42.770Z,946.6
2017-06-01T04:19:50.338Z,946.6
2017-06-01T04:20:58.547Z,946.5
2017-06-01T04:22:06.715Z,946.5
2017-06-01T04:23:14.600Z,946.5
2017-06-01T04:24:22.687Z,946.5
2017-06-01T04:25:30.776Z,946.5
2017-06-01T04:26:38.982Z,946.4
2017-06-01T04:27:46.952Z,946.4
2017-06-01T04:28:55.106Z,946.4
2017-06-01T04:30:03.125Z,946.4
2017-06-01T04:31:11.212Z,946.4
2017-06-01T04:32:19.356Z,946.3
2017-06-01T04:33:27.386Z,946.3
2017-06-01T04:34:35.474Z,946.3
2017-06-01T04:35:43.560Z,946.3
2017-06-01T04:36:51.645Z,946.3
2017-06-01T04:37:59.857Z,946.3
2017-06-01T04:39:07.824Z,946.3
2017-06-01T04:40:15.912Z,946.3
2017-06-01T04:41:23.998Z,946.4
2017-06-01T04:42:32.085Z,946.4
2017-06-01T04:43:40.294Z,946.4
2017-06-01T04:44:48.258Z,946.4
2017-06-01T04:45:56.503Z,946.5
2017-06-01T04:47:04.435Z,946.5
2017-06-01T04:48:12.521Z,946.5
2017-06-01T04:49:20.665Z,946.5
2017-06-01T04:50:28.697Z,946.5
2017-06-01T04:51:36.872Z,946.6
2017-06-01T04:52:44.876Z,946.6
2017-06-01T04:53:53.083Z,946.6
2017-06-01T04:55:01.215Z,946.6
2017-06-01T04:56:09.141Z,946.6
2017-06-01T04:57:17.228Z,946.6
2017-06-01T04:58:25.314Z,946.6
2017-06-01T04:59:33.400Z,946.6
2017-06-01T05:00:47.001Z,946.6
2017-06-01T05:01:49.578Z,946.6
2017-06-01T05:02:57.660Z,946.6
2017-06-01T05:04:05.748Z,946.6
2017-06-01T05:05:13.837Z,946.6
2017-06-01T05:06:22.043Z,946.6
2017-06-01T05:07:30.011Z,946.6
2017-06-01T05:08:38.185Z,946.6
2017-06-01T05:09:46.307Z,946.5
2017-06-01T05:10:54.275Z,946.5
2017-06-01T05:12:02.418Z,946.6
2017-06-01T05:13:10.447Z,946.6
2017-06-01T05:14:18.536Z,946.6
2017-06-01T05:15:26.624Z,946.7
2017-06-01T05:16:34.712Z,946.6
2017-06-01T05:17:42.919Z,946.6
2017-06-01T05:18:50.893Z,946.6
2017-06-01T05:19:59.135Z,946.7
2017-06-01T05:21:07.068Z,946.6
2017-06-01T05:22:15.154Z,946.7
2017-06-01T05:23:23.364Z,946.7
2017-06-01T05:24:31.329Z,946.7
2017-06-01T05:25:39.504Z,946.7
2017-06-01T05:26:47.505Z,946.7
2017-06-01T05:27:55.592Z,946.7
2017-06-01T05:29:03.798Z,946.7
2017-06-01T05:30:11.766Z,946.7
2017-06-01T05:31:19.852Z,946.7
2017-06-01T05:32:27.940Z,946.6
2017-06-01T05:33:36.028Z,946.7
2017-06-01T05:34:44.246Z,946.6
2017-06-01T05:35:52.202Z,946.6
2017-06-01T05:37:00.419Z,946.7
2017-06-01T05:38:08.376Z,946.7
2017-06-01T05:39:16.463Z,946.6
2017-06-01T05:40:24.672Z,946.6
2017-06-01T05:41:32.692Z,946.7
2017-06-01T05:42:40.734Z,946.6
2017-06-01T05:43:48.812Z,946.6
2017-06-01T05:44:56.919Z,946.7
2017-06-01T05:46:05.109Z,946.7
2017-06-01T05:47:13.077Z,946.6
2017-06-01T05:48:21.172Z,946.7
2017-06-01T05:49:29.248Z,946.6
2017-06-01T05:50:37.336Z,946.7
2017-06-01T05:51:45.542Z,946.7
2017-06-01T05:52:53.518Z,946.7
2017-06-01T05:54:01.631Z,946.7
2017-06-01T05:55:09.686Z,946.7
2017-06-01T05:56:17.773Z,946.7
2017-06-01T05:57:25.982Z,946.7
2017-06-01T05:58:33.948Z,946.7
2017-06-01T05:59:42.075Z,946.7
2017-06-01T06:00:50.129Z,946.7
2017-06-01T06:01:58.212Z,946.7
2017-06-01T06:03:06.422Z,946.7
2017-06-01T06:04:14.389Z,946.6
2017-06-01T06:05:22.478Z,946.7
2017-06-01T06:06:30.564Z,946.7
2017-06-01T06:07:38.652Z,946.6
2017-06-01T06:08:46.794Z,946.7
2017-06-01T06:09:54.831Z,946.7
2017-06-01T06:11:03.108Z,946.7
2017-06-01T06:12:11.007Z,946.7
2017-06-01T06:13:19.216Z,946.7
2017-06-01T06:14:27.302Z,946.7
2017-06-01T06:15:35.268Z,946.7
2017-06-01T06:16:43.430Z,946.6
2017-06-01T06:17:51.442Z,946.7
2017-06-01T06:18:59.530Z,946.6
2017-06-01T06:20:07.674Z,946.7
2017-06-01T06:21:15.703Z,946.7
2017-06-01T06:22:23.792Z,946.7
2017-06-01T06:23:31.879Z,946.7
2017-06-01T06:24:39.966Z,946.7
2017-06-01T06:25:48.174Z,946.7
2017-06-01T06:26:56.139Z,946.7
2017-06-01T06:28:04.418Z,946.7
2017-06-01T06:29:12.433Z,946.8
2017-06-01T06:30:20.399Z,946.8
2017-06-01T06:31:28.543Z,946.8
2017-06-01T06:32:36.576Z,946.8
2017-06-01T06:33:44.662Z,946.8
2017-06-01T06:34:52.756Z,946.9
2017-06-01T06:36:00.843Z,946.8
2017-06-01T06:37:09.050Z,946.8
2017-06-01T06:38:17.018Z,946.9
2017-06-01T06:39:25.105Z,946.9
2017-06-01T06:40:33.192Z,946.9
2017-06-01T06:41:41.279Z,946.9
2017-06-01T06:42:49.488Z,946.9
2017-06-01T06:43:57.453Z,946.9
2017-06-01T06:45:05.645Z,946.9
2017-06-01T06:46:13.629Z,946.9
2017-06-01T06:47:21.713Z,946.9
2017-06-01T06:48:29.924Z,946.9
2017-06-01T06:49:37.892Z,946.9
2017-06-01T06:50:46.025Z,946.9
2017-06-01T06:51:54.066Z,946.9
2017-06-01T06:53:02.153Z,947.0
2017-06-01T06:54:10.360Z,947.0
2017-06-01T06:55:18.326Z,947.0
2017-06-01T06:56:26.411Z,946.9
2017-06-01T06:57:34.500Z,946.9
2017-06-01T06:58:42.587Z,947.0
2017-06-01T06:59:50.731Z,946.9
2017-06-01T07:00:58.883Z,947.0
2017-06-01T07:02:07.004Z,947.0
2017-06-01T07:03:14.938Z,947.0
2017-06-01T07:04:23.022Z,947.0
2017-06-01T07:05:31.232Z,947.0
2017-06-01T07:06:39.195Z,947.0
2017-06-01T07:07:47.351Z,947.0
2017-06-01T07:08:55.371Z,947.0
2017-06-01T07:10:03.460Z,947.0
2017-06-01T07:11:11.601Z,947.0
2017-06-01T07:12:19.635Z,947.0
2017-06-01T07:13:27.725Z,947.0
2017-06-01T07:14:35.809Z,947.0
2017-06-01T07:15:43.901Z,947.0
2017-06-01T07:16:52.109Z,947.0
2017-06-01T07:18:00.077Z,947.0
2017-06-01T07:19:08.318Z,947.0
2017-06-01T07:20:16.252Z,947.0
2017-06-01T07:21:24.344Z,946.9
2017-06-01T07:22:32.544Z,946.9
2017-06-01T07:23:40.510Z,946.9
2017-06-01T07:24:48.599Z,946.9
2017-06-01T07:25:56.687Z,946.9
2017-06-01T07:27:04.775Z,946.9
2017-06-01T07:28:12.982Z,946.9
2017-06-01T07:29:20.951Z,946.9
2017-06-01T07:30:29.035Z,946.9
2017-06-01T07:31:37.124Z,946.9
2017-06-01T07:32:45.333Z,946.9
2017-06-01T07:33:53.418Z,946.9
2017-06-01T07:35:01.384Z,946.8
2017-06-01T07:36:09.573Z,946.8
2017-06-01T07:37:17.558Z,946.8
2017-06-01T07:38:25.651Z,946.8
2017-06-01T07:39:33.797Z,946.8
2017-06-01T07:40:41.827Z,946.8
2017-06-01T07:41:50.006Z,946.8
2017-06-01T07:42:58.014Z,946.8
2017-06-01T07:44:06.096Z,946.8
2017-06-01T07:45:14.305Z,946.8
2017-06-01T07:46:22.271Z,946.8
2017-06-01T07:47:30.360Z,946.8
2017-06-01T07:48:38.563Z,946.8
2017-06-01T07:49:46.532Z,946.8
2017-06-01T07:50:54.740Z,946.8
2017-06-01T07:52:02.712Z,946.8
2017-06-01T07:53:10.955Z,946.8
2017-06-01T07:54:18.888Z,946.8
2017-06-01T07:55:26.975Z,946.8
2017-06-01T07:56:35.182Z,946.8
2017-06-01T07:57:43.151Z,946.8
2017-06-01T07:58:51.278Z,946.8
2017-06-01T07:59:59.322Z,946.8
2017-06-01T08:01:07.411Z,946.8
2017-06-01T08:02:15.619Z,946.8
2017-06-01T08:03:23.587Z,946.8
2017-06-01T08:04:31.731Z,946.8
2017-06-01T08:05:39.762Z,946.8
2017-06-01T08:06:47.849Z,946.8
2017-06-01T08:07:56.058Z,946.8
2017-06-01T08:09:04.024Z,946.8
2017-06-01T08:10:12.224Z,946.8
2017-06-01T08:11:20.210Z,946.8
2017-06-01T08:12:28.287Z,946.8
2017-06-01T08:13:36.508Z,946.8
2017-06-01T08:14:44.466Z,946.8
2017-06-01T08:15:52.558Z,946.8
2017-06-01T08:17:00.643Z,946.9
2017-06-01T08:18:08.728Z,946.8
2017-06-01T08:19:16.936Z,946.8
2017-06-01T08:20:25.209Z,946.8
2017-06-01T08:21:32.994Z,946.9
2017-06-01T08:22:41.079Z,946.9
2017-06-01T08:23:49.167Z,946.9
2017-06-01T08:24:57.312Z,946.9
2017-06-01T08:26:05.344Z,946.9
2017-06-01T08:27:13.530Z,946.9
2017-06-01T08:28:21.517Z,946.9
2017-06-01T08:29:29.606Z,946.9
2017-06-01T08:30:37.816Z,946.9
2017-06-01T08:31:45.782Z,946.9
2017-06-01T08:32:53.877Z,946.9
2017-06-01T08:34:01.965Z,946.9
2017-06-01T08:35:10.055Z,947.0
2017-06-01T08:36:18.269Z,946.9
2017-06-01T08:37:26.405Z,947.0
2017-06-01T08:38:34.316Z,946.9
2017-06-01T08:39:42.413Z,946.9
2017-06-01T08:40:50.500Z,946.9
2017-06-01T08:41:58.645Z,946.9
2017-06-01T08:43:06.678Z,946.9
2017-06-01T08:44:14.857Z,946.9
2017-06-01T08:45:22.852Z,946.9
2017-06-01T08:46:30.940Z,946.9
2017-06-01T08:47:39.150Z,946.9
2017-06-01T08:48:47.121Z,946.9
2017-06-01T08:49:55.203Z,946.9
2017-06-01T08:51:03.291Z,946.9
2017-06-01T08:52:11.502Z,946.9
2017-06-01T08:53:19.587Z,946.9
2017-06-01T08:54:27.636Z,946.9
2017-06-01T08:55:35.643Z,946.9
2017-06-01T08:56:43.733Z,946.9
2017-06-01T08:57:51.822Z,946.9
2017-06-01T08:59:00.029Z,946.9
2017-06-01T09:00:07.997Z,946.9
2017-06-01T09:01:16.177Z,946.9
2017-06-01T09:02:24.174Z,946.9
2017-06-01T09:03:32.263Z,946.9
2017-06-01T09:04:40.406Z,946.9
2017-06-01T09:05:48.436Z,946.9
2017-06-01T09:06:56.524Z,946.9
2017-06-01T09:08:04.733Z,946.9
2017-06-01T09:09:12.707Z,946.9
2017-06-01T09:10:20.911Z,946.8
2017-06-01T09:11:29.046Z,946.9
2017-06-01T09:12:36.974Z,946.9
2017-06-01T09:13:45.054Z,946.9
2017-06-01T09:14:53.142Z,946.9
2017-06-01T09:16:01.349Z,946.9
2017-06-01T09:17:09.318Z,946.9
2017-06-01T09:18:17.500Z,946.8
2017-06-01T09:19:25.494Z,946.9
2017-06-01T09:20:33.584Z,946.9
2017-06-01T09:21:41.800Z,946.9
2017-06-01T09:22:49.775Z,946.8
2017-06-01T09:23:57.987Z,946.9
2017-06-01T09:25:05.956Z,946.9
2017-06-01T09:26:14.044Z,946.9
2017-06-01T09:27:22.252Z,946.8
2017-06-01T09:28:30.387Z,946.8
2017-06-01T09:29:38.315Z,946.8
2017-06-01T09:30:46.403Z,946.8
2017-06-01T09:31:54.489Z,946.8
2017-06-01T09:33:02.706Z,946.8
2017-06-01T09:34:10.674Z,946.8
2017-06-01T09:35:18.763Z,946.8
2017-06-01T09:36:26.852Z,946.9
2017-06-01T09:37:34.940Z,946.8
2017-06-01T09:38:43.147Z,946.8
2017-06-01T09:39:51.172Z,946.8
2017-06-01T09:40:59.203Z,946.8
2017-06-01T09:42:07.291Z,946.8
2017-06-01T09:43:15.384Z,946.9
2017-06-01T09:44:23.530Z,946.8
2017-06-01T09:45:31.565Z,946.8
2017-06-01T09:46:39.653Z,946.8
2017-06-01T09:47:47.740Z,946.8
2017-06-01T09:48:55.828Z,946.8
2017-06-01T09:50:04.036Z,946.8
2017-06-01T09:51:12.002Z,946.9
2017-06-01T09:52:20.094Z,946.9
2017-06-01T09:53:28.183Z,946.9
2017-06-01T09:54:36.270Z,946.9
2017-06-01T09:55:44.479Z,946.9
2017-06-01T09:56:52.445Z,946.9
2017-06-01T09:58:00.541Z,946.9
2017-06-01T09:59:08.629Z,946.9
2017-06-01T10:00:16.719Z,946.9
2017-06-01T10:01:24.866Z,946.9
2017-06-01T10:02:32.968Z,947.0
2017-06-01T10:03:40.992Z,946.9
2017-06-01T10:04:49.078Z,947.0
2017-06-01T10:05:57.166Z,946.9
2017-06-01T10:07:05.377Z,946.9
2017-06-01T10:08:13.348Z,946.9
2017-06-01T10:09:21.445Z,946.9
2017-06-01T10:10:29.521Z,946.9
2017-06-01T10:11:37.729Z,946.9
2017-06-01T10:12:45.755Z,946.9
2017-06-01T10:13:53.790Z,946.9
2017-06-01T10:15:01.877Z,946.9
2017-06-01T10:16:09.963Z,946.9
2017-06-01T10:17:18.053Z,946.9
2017-06-01T10:18:26.264Z,946.8
2017-06-01T10:19:34.316Z,946.8
2017-06-01T10:20:42.320Z,946.8
2017-06-01T10:21:50.409Z,946.8
2017-06-01T10:22:58.495Z,946.8
2017-06-01T10:24:06.641Z,946.8
2017-06-01T10:25:14.672Z,946.8
2017-06-01T10:26:22.763Z,946.8
2017-06-01T10:27:30.970Z,946.8
2017-06-01T10:28:38.939Z,946.8
2017-06-01T10:29:47.149Z,946.8
2017-06-01T10:30:55.295Z,946.8
2017-06-01T10:32:03.210Z,946.8
2017-06-01T10:33:11.297Z,946.8
2017-06-01T10:34:19.387Z,946.8
2017-06-01T10:35:27.595Z,946.8
2017-06-01T10:36:35.571Z,946.8
2017-06-01T10:37:43.661Z,946.8
2017-06-01T10:38:51.751Z,946.8
2017-06-01T10:39:59.836Z,946.8
2017-06-01T10:41:07.984Z,946.8
2017-06-01T10:42:16.014Z,946.8
2017-06-01T10:43:24.224Z,946.8
2017-06-01T10:44:32.189Z,946.8
2017-06-01T10:45:40.287Z,946.9
2017-06-01T10:46:48.426Z,946.9
2017-06-01T10:47:56.590Z,946.8
2017-06-01T10:49:04.545Z,946.8
2017-06-01T10:50:12.634Z,946.8
2017-06-01T10:51:20.722Z,946.8
2017-06-01T10:52:28.929Z,946.8
2017-06-01T10:53:36.900Z,946.9
2017-06-01T10:54:45.142Z,946.9
2017-06-01T10:55:53.075Z,946.8
2017-06-01T10:57:01.164Z,946.9
2017-06-01T10:58:09.478Z,946.8
2017-06-01T10:59:17.550Z,946.8
2017-06-01T11:00:25.431Z,946.9
2017-06-01T11:01:33.518Z,946.8
2017-06-01T11:02:41.615Z,946.8
2017-06-01T11:03:49.823Z,946.8
2017-06-01T11:04:57.872Z,946.8
2017-06-01T11:06:05.886Z,946.8
2017-06-01T11:07:14.034Z,946.8
2017-06-01T11:08:22.059Z,946.8
2017-06-01T11:09:30.203Z,946.8
2017-06-01T11:10:38.235Z,946.8
2017-06-01T11:11:46.380Z,946.8
2017-06-01T11:12:54.412Z,946.8
2017-06-01T11:14:02.500Z,946.8
2017-06-01T11:15:12.258Z,946.8
2017-06-01T11:16:18.833Z,946.9
2017-06-01T11:17:26.772Z,946.8
2017-06-01T11:18:34.863Z,946.8
2017-06-01T11:19:42.952Z,946.8
2017-06-01T11:20:51.160Z,946.8
2017-06-01T11:21:59.190Z,946.8
2017-06-01T11:23:07.213Z,946.8
2017-06-01T11:24:15.305Z,946.8
2017-06-01T11:25:23.393Z,946.8
2017-06-01T11:26:31.604Z,946.8
2017-06-01T11:27:39.571Z,946.8
2017-06-01T11:28:47.659Z,946.7
2017-06-01T11:29:55.748Z,946.7
2017-06-01T11:31:03.958Z,946.7
2017-06-01T11:32:12.190Z,946.7
2017-06-01T11:33:20.152Z,946.7
2017-06-01T11:34:28.102Z,946.7
2017-06-01T11:35:36.192Z,946.7
2017-06-01T11:36:44.283Z,946.6
2017-06-01T11:37:52.425Z,946.6
2017-06-01T11:39:00.462Z,946.7
2017-06-01T11:40:08.542Z,946.6
2017-06-01T11:41:16.632Z,946.6
2017-06-01T11:42:24.721Z,946.6
2017-06-01T11:43:33.117Z,946.6
2017-06-01T11:44:40.902Z,946.5
2017-06-01T11:45:48.991Z,946.5
2017-06-01T11:46:57.200Z,946.5
2017-06-01T11:48:05.169Z,946.5
2017-06-01T11:49:13.398Z,946.6
2017-06-01T11:50:21.453Z,946.6
2017-06-01T11:51:29.432Z,946.5
2017-06-01T11:52:37.530Z,946.5
2017-06-01T11:53:45.612Z,946.5
2017-06-01T11:54:53.819Z,946.5
2017-06-01T11:56:01.789Z,946.4
2017-06-01T11:57:09.878Z,946.4
2017-06-01T11:58:17.967Z,946.4
2017-06-01T11:59:26.056Z,946.4
2017-06-01T12:00:34.431Z,946.4
2017-06-01T12:01:42.235Z,946.4
2017-06-01T12:02:50.444Z,946.5
2017-06-01T12:03:58.412Z,946.4
2017-06-01T12:05:06.502Z,946.4
2017-06-01T12:06:14.710Z,946.4
2017-06-01T12:07:22.678Z,946.4
2017-06-01T12:08:30.767Z,946.3
2017-06-01T12:09:38.856Z,946.3
2017-06-01T12:10:46.946Z,946.3
2017-06-01T12:11:55.158Z,946.3
2017-06-01T12:13:03.152Z,946.4
2017-06-01T12:14:11.213Z,946.3
2017-06-01T12:15:19.300Z,946.3
2017-06-01T12:16:27.388Z,946.3
2017-06-01T12:17:35.604Z,946.2
2017-06-01T12:18:43.619Z,946.3
2017-06-01T12:19:51.654Z,946.3
2017-06-01T12:20:59.754Z,946.2
2017-06-01T12:22:07.833Z,946.2
2017-06-01T12:23:16.040Z,946.2
2017-06-01T12:24:24.145Z,946.1
2017-06-01T12:25:32.100Z,946.2
2017-06-01T12:26:40.203Z,946.1
2017-06-01T12:27:48.281Z,946.2
2017-06-01T12:28:56.485Z,946.2
2017-06-01T12:30:04.512Z,946.2
2017-06-01T12:31:12.545Z,946.2
2017-06-01T12:32:20.633Z,946.1
2017-06-01T12:33:28.731Z,946.1
2017-06-01T12:34:36.931Z,946.1
2017-06-01T12:35:44.904Z,946.1
2017-06-01T12:36:52.991Z,946.1
2017-06-01T12:38:01.077Z,946.0
2017-06-01T12:39:09.166Z,946.0
2017-06-01T12:40:17.474Z,946.1
2017-06-01T12:41:25.441Z,946.1
2017-06-01T12:42:33.442Z,946.0
2017-06-01T12:43:41.529Z,946.0
2017-06-01T12:44:49.625Z,946.0
2017-06-01T12:45:57.833Z,946.0
2017-06-01T12:47:05.800Z,946.0
2017-06-01T12:48:13.896Z,946.0
2017-06-01T12:49:21.980Z,945.9
2017-06-01T12:50:30.189Z,946.0
2017-06-01T12:51:38.447Z,945.9
2017-06-01T12:52:46.257Z,945.9
2017-06-01T12:53:54.335Z,945.9
2017-06-01T12:55:02.425Z,945.9
2017-06-01T12:56:10.513Z,945.9
2017-06-01T12:57:18.658Z,945.9
2017-06-01T12:58:26.691Z,945.9
2017-06-01T12:59:34.783Z,946.0
2017-06-01T13:00:42.870Z,945.9
2017-06-01T13:01:50.960Z,945.9
2017-06-01T13:02:59.169Z,946.0
2017-06-01T13:04:07.135Z,946.0
2017-06-01T13:05:15.223Z,946.0
2017-06-01T13:06:23.434Z,945.9
2017-06-01T13:07:31.401Z,945.9
2017-06-01T13:08:39.610Z,945.9
2017-06-01T13:09:47.580Z,945.9
2017-06-01T13:10:55.669Z,945.9
2017-06-01T13:12:03.759Z,945.9
2017-06-01T13:13:11.850Z,945.8
2017-06-01T13:14:20.176Z,945.8
2017-06-01T13:15:28.181Z,945.8
2017-06-01T13:16:36.115Z,945.8
2017-06-01T13:17:44.204Z,945.8
2017-06-01T13:18:52.294Z,945.8
2017-06-01T13:20:00.502Z,945.8
2017-06-01T13:21:08.517Z,945.8
2017-06-01T13:22:16.679Z,945.7
2017-06-01T13:23:24.649Z,945.8
2017-06-01T13:24:32.738Z,945.7
2017-06-01T13:25:40.883Z,945.7
2017-06-01T13:26:48.916Z,945.7
2017-06-01T13:27:57.005Z,945.7
2017-06-01T13:29:05.094Z,945.7
2017-06-01T13:30:13.182Z,945.7
2017-06-01T13:31:21.498Z,945.7
2017-06-01T13:32:29.462Z,945.7
2017-06-01T13:33:37.449Z,945.7
2017-06-01T13:34:45.540Z,945.7
2017-06-01T13:35:53.625Z,945.7
2017-06-01T13:37:01.837Z,945.6
2017-06-01T13:38:09.927Z,945.6
2017-06-01T13:39:17.898Z,945.6
2017-06-01T13:40:25.991Z,945.6
2017-06-01T13:41:34.078Z,945.6
2017-06-01T13:42:42.399Z,945.6
2017-06-01T13:43:50.255Z,945.6
2017-06-01T13:44:58.345Z,945.6
2017-06-01T13:46:06.432Z,945.6
2017-06-01T13:47:14.523Z,945.6
2017-06-01T13:48:22.667Z,945.6
2017-06-01T13:49:30.701Z,945.5
2017-06-01T13:50:38.791Z,945.5
2017-06-01T13:51:46.880Z,945.6
2017-06-01T13:52:54.968Z,945.6
2017-06-01T13:54:03.179Z,945.6
2017-06-01T13:55:11.142Z,945.6
2017-06-01T13:56:19.234Z,945.5
2017-06-01T13:57:27.322Z,945.5
2017-06-01T13:58:35.413Z,945.5
2017-06-01T13:59:43.770Z,945.5
2017-06-01T14:00:51.598Z,945.5
2017-06-01T14:01:59.688Z,945.4
2017-06-01T14:03:07.770Z,945.5
2017-06-01T14:04:15.857Z,945.4
2017-06-01T14:05:24.056Z,945.4
2017-06-01T14:06:32.085Z,945.4
2017-06-01T14:07:40.124Z,945.4
2017-06-01T14:08:48.214Z,945.4
2017-06-01T14:09:56.424Z,945.4
2017-06-01T14:11:04.451Z,945.4
2017-06-01T14:12:12.479Z,945.3
2017-06-01T14:13:20.573Z,945.3
2017-06-01T14:14:28.656Z,945.2
2017-06-01T14:15:36.748Z,945.2
2017-06-01T14:16:45.118Z,945.2
2017-06-01T14:17:52.927Z,945.2
2017-06-01T14:19:01.015Z,945.3
2017-06-01T14:20:09.105Z,945.1
2017-06-01T14:21:17.193Z,945.2
2017-06-01T14:22:25.455Z,945.2
2017-06-01T14:23:33.369Z,945.2
2017-06-01T14:24:41.465Z,945.1
2017-06-01T14:25:49.606Z,945.2
2017-06-01T14:26:57.640Z,945.2
2017-06-01T14:28:05.848Z,945.2
2017-06-01T14:29:13.818Z,945.2
2017-06-01T14:30:21.905Z,945.2
2017-06-01T14:31:29.996Z,945.1
2017-06-01T14:32:38.083Z,945.1
2017-06-01T14:33:46.402Z,945.1
2017-06-01T14:34:54.263Z,945.1
2017-06-01T14:36:02.350Z,945.1
2017-06-01T14:37:10.439Z,945.1